Jasper S — V2CQ4 — position and weather

sailwx.info

Track history (hours):
 
Tides and Currents Weather Stations Pressure Air Temp Water Temp Dewpoint Dewpoint Depression Visibility Wind Speed Wind Dir Waves Ship Positions

Jasper S

Last reported at 2016-Apr-26 23:33 UTC. Time now 2016-May-02 12:31 UTC.
Position N 36°22' W 000°21'.

Length 148 m; draft 8.9 m.

Type: Ship (hazmat cat A). MMSI: 305079000.

Date/timePositionNaut miles runAvg speedWind from/ knotsBaromVisibWave heightAir tempDewpointWater temp
2016-Apr-26 23:33N 36°22' W 000°21'1615.5
2016-Apr-26 22:33N 36°37' W 000°16'1615.6
2016-Apr-26 21:33N 36°52' W 000°10'1615.8
2016-Apr-26 20:33N 37°07' W 000°05'1615.6
2016-Apr-26 19:33N 37°22' E 000°01'1515.2
2016-Apr-26 18:33N 37°37' E 000°06'1615.5
2016-Apr-26 17:32N 37°52' E 000°11'4815.9
2016-Apr-26 14:33N 38°38' E 000°28'1715.8
2016-Apr-26 13:28N 38°53' E 000°18'4415.1
2016-Apr-26 10:33N 39°26' W 000°19'1 0.6
2016-Apr-26 09:31N 39°26' W 000°19'0 0.0
2016-Apr-26 08:19N 39°26' W 000°19'0 0.0
2016-Apr-26 07:07N 39°26' W 000°19'0 0.0
2016-Apr-26 06:13N 39°26' W 000°19'0 0.0
2016-Apr-26 05:31N 39°26' W 000°19'0 0.0
2016-Apr-26 04:25N 39°26' W 000°19'0 0.0
2016-Apr-26 03:31N 39°26' W 000°19'0 0.0
2016-Apr-26 02:31N 39°26' W 000°19'0 0.0
2016-Apr-26 01:31N 39°26' W 000°19'0 0.0
2016-Apr-26 00:19N 39°26' W 000°19'0 0.0
2016-Apr-25 23:31N 39°26' W 000°19'0 0.0
2016-Apr-25 22:31N 39°26' W 000°19'0 0.0
2016-Apr-25 21:31N 39°26' W 000°19'0 0.0
2016-Apr-25 20:22N 39°26' W 000°19'0 0.0
2016-Apr-25 19:31N 39°26' W 000°19'0 0.4
2016-Apr-25 18:31N 39°26' W 000°19'0 0.0
2016-Apr-25 17:31N 39°26' W 000°19'0 0.0
2016-Apr-25 16:28N 39°26' W 000°19'0 0.0
2016-Apr-25 12:13N 39°26' W 000°19'0 0.0
2016-Apr-25 10:19N 39°26' W 000°19'0 0.0
2016-Apr-25 08:22N 39°26' W 000°19'0 0.0
2016-Apr-25 07:28N 39°26' W 000°19'0 0.0
2016-Apr-25 04:22N 39°26' W 000°19'0 0.0
2016-Apr-25 02:13N 39°26' W 000°19'0 0.0
2016-Apr-25 00:25N 39°26' W 000°19'4 4.7
2016-Apr-24 23:32N 39°24' W 000°14'76 8.3
2016-Apr-24 14:28N 38°13' E 000°20'10 9.2
2016-Apr-24 13:21N 38°03' E 000°17'147 3.5
2016-Apr-22 19:27N 35°43' W 000°38'0 0.0
2016-Apr-22 08:33N 35°43' W 000°38'0 0.0
2016-Apr-22 07:27N 35°43' W 000°38'0 0.0
2016-Apr-21 23:33N 35°43' W 000°38'0 0.0
2016-Apr-21 22:27N 35°43' W 000°38'0 0.0
2016-Apr-21 19:20N 35°43' W 000°38'  
Track history (hours):
 
Tides and Currents Weather Stations Pressure Air Temp Water Temp Dewpoint Dewpoint Depression Visibility Wind Speed Wind Dir Waves Ship Positions

Jasper S

Last reported at 2016-Apr-26 23:33 UTC. Time now 2016-May-02 12:31 UTC.
Position N 36°22' W 000°21'.

Length 148 m; draft 8.9 m.

Type: Ship (hazmat cat A). MMSI: 305079000.

Date/timePositionNaut miles runAvg speedWind from/ knotsBaromVisibWave heightAir tempDewpointWater temp
2016-Apr-26 23:33N 36°22' W 000°21'1615.5
2016-Apr-26 22:33N 36°37' W 000°16'1615.6
2016-Apr-26 21:33N 36°52' W 000°10'1615.8
2016-Apr-26 20:33N 37°07' W 000°05'1615.6
2016-Apr-26 19:33N 37°22' E 000°01'1515.2
2016-Apr-26 18:33N 37°37' E 000°06'1615.5
2016-Apr-26 17:32N 37°52' E 000°11'4815.9
2016-Apr-26 14:33N 38°38' E 000°28'1715.8
2016-Apr-26 13:28N 38°53' E 000°18'4415.1
2016-Apr-26 10:33N 39°26' W 000°19'1 0.6
2016-Apr-26 09:31N 39°26' W 000°19'0 0.0
2016-Apr-26 08:19N 39°26' W 000°19'0 0.0
2016-Apr-26 07:07N 39°26' W 000°19'0 0.0
2016-Apr-26 06:13N 39°26' W 000°19'0 0.0
2016-Apr-26 05:31N 39°26' W 000°19'0 0.0
2016-Apr-26 04:25N 39°26' W 000°19'0 0.0
2016-Apr-26 03:31N 39°26' W 000°19'0 0.0
2016-Apr-26 02:31N 39°26' W 000°19'0 0.0
2016-Apr-26 01:31N 39°26' W 000°19'0 0.0
2016-Apr-26 00:19N 39°26' W 000°19'0 0.0
2016-Apr-25 23:31N 39°26' W 000°19'0 0.0
2016-Apr-25 22:31N 39°26' W 000°19'0 0.0
2016-Apr-25 21:31N 39°26' W 000°19'0 0.0
2016-Apr-25 20:22N 39°26' W 000°19'0 0.0
2016-Apr-25 19:31N 39°26' W 000°19'0 0.4
2016-Apr-25 18:31N 39°26' W 000°19'0 0.0
2016-Apr-25 17:31N 39°26' W 000°19'0 0.0
2016-Apr-25 16:28N 39°26' W 000°19'0 0.0
2016-Apr-25 12:13N 39°26' W 000°19'0 0.0
2016-Apr-25 10:19N 39°26' W 000°19'0 0.0
2016-Apr-25 08:22N 39°26' W 000°19'0 0.0
2016-Apr-25 07:28N 39°26' W 000°19'0 0.0
2016-Apr-25 04:22N 39°26' W 000°19'0 0.0
2016-Apr-25 02:13N 39°26' W 000°19'0 0.0
2016-Apr-25 00:25N 39°26' W 000°19'4 4.7
2016-Apr-24 23:32N 39°24' W 000°14'76 8.3
2016-Apr-24 14:28N 38°13' E 000°20'10 9.2
2016-Apr-24 13:21N 38°03' E 000°17'147 3.5
2016-Apr-22 19:27N 35°43' W 000°38'0 0.0
2016-Apr-22 08:33N 35°43' W 000°38'0 0.0
2016-Apr-22 07:27N 35°43' W 000°38'0 0.0
2016-Apr-21 23:33N 35°43' W 000°38'0 0.0
2016-Apr-21 22:27N 35°43' W 000°38'0 0.0
2016-Apr-21 19:20N 35°43' W 000°38'  

Dump ship's entire track history